createdAt,value
2017-09-19T00:01:42.681Z,20.40
2017-09-19T00:04:09.228Z,26.60
2017-09-19T00:06:35.664Z,26.13
2017-09-19T00:09:02.911Z,27.53
2017-09-19T00:11:29.354Z,23.17
2017-09-19T00:13:55.840Z,33.33
2017-09-19T00:16:22.313Z,21.33
2017-09-19T00:18:48.757Z,22.27
2017-09-19T00:21:15.196Z,35.37
2017-09-19T00:23:41.732Z,21.50
2017-09-19T00:26:08.885Z,26.47
2017-09-19T00:28:35.318Z,28.03
2017-09-19T00:31:01.754Z,22.77
2017-09-19T00:33:28.290Z,25.33
2017-09-19T00:35:54.656Z,26.97
2017-09-19T00:38:21.047Z,26.90
2017-09-19T00:40:47.490Z,24.43
2017-09-19T00:43:14.645Z,22.90
2017-09-19T00:45:41.090Z,24.83
2017-09-19T00:48:07.515Z,29.20
2017-09-19T00:50:33.949Z,29.00
2017-09-19T00:53:00.486Z,24.20
2017-09-19T00:55:26.921Z,27.83
2017-09-19T00:57:53.357Z,23.07
2017-09-19T01:00:20.608Z,21.27
2017-09-19T01:02:47.148Z,22.50
2017-09-19T01:05:13.582Z,21.50
2017-09-19T01:07:40.017Z,21.77
2017-09-19T01:10:06.457Z,27.40
2017-09-19T01:12:32.887Z,22.87
2017-09-19T01:14:59.322Z,21.63
2017-09-19T01:17:26.474Z,22.47
2017-09-19T01:19:52.909Z,25.20
2017-09-19T01:22:19.295Z,24.80
2017-09-19T01:24:45.727Z,33.33
2017-09-19T01:27:12.201Z,20.07
2017-09-19T01:29:38.650Z,24.90
2017-09-19T01:32:05.083Z,29.20
2017-09-19T01:34:32.245Z,23.27
2017-09-19T01:36:58.671Z,18.23
2017-09-19T01:39:25.065Z,25.83
2017-09-19T01:41:51.536Z,21.30
2017-09-19T01:44:18.077Z,19.47
2017-09-19T01:46:44.519Z,27.07
2017-09-19T01:49:10.951Z,31.13
2017-09-19T01:51:38.201Z,27.80
2017-09-19T01:54:04.722Z,23.90
2017-09-19T01:56:31.275Z,21.40
2017-09-19T01:58:57.710Z,28.17
2017-09-19T02:01:24.145Z,24.77
2017-09-19T02:03:50.682Z,23.80
2017-09-19T02:06:17.117Z,37.20
2017-09-19T02:08:44.326Z,26.80
2017-09-19T02:11:10.806Z,33.43
2017-09-19T02:13:37.343Z,23.63
2017-09-19T02:16:03.727Z,31.17
2017-09-19T02:18:30.197Z,21.80
2017-09-19T02:20:56.649Z,28.03
2017-09-19T02:23:23.186Z,21.03
2017-09-19T02:25:50.326Z,30.47
2017-09-19T02:28:16.769Z,21.33
2017-09-19T02:30:43.221Z,33.87
2017-09-19T02:33:09.748Z,31.37
2017-09-19T02:35:36.170Z,26.23
2017-09-19T02:38:02.616Z,42.03
2017-09-19T02:40:29.152Z,30.27
2017-09-19T02:42:56.303Z,28.67
2017-09-19T02:45:22.741Z,28.00
2017-09-19T02:47:49.175Z,38.23
2017-09-19T02:50:15.610Z,32.13
2017-09-19T02:52:42.148Z,35.50
2017-09-19T02:55:08.584Z,33.43
2017-09-19T02:57:35.104Z,38.13
2017-09-19T03:00:02.270Z,27.40
2017-09-19T03:02:28.705Z,38.00
2017-09-19T03:04:55.140Z,27.17
2017-09-19T03:07:21.574Z,42.87
2017-09-19T03:09:48.009Z,26.30
2017-09-19T03:12:14.446Z,32.80
2017-09-19T03:14:40.879Z,26.17
2017-09-19T03:17:08.120Z,39.83
2017-09-19T03:19:34.567Z,35.60
2017-09-19T03:22:01.105Z,26.83
2017-09-19T03:24:27.643Z,35.83
2017-09-19T03:26:54.078Z,29.30
2017-09-19T03:29:20.512Z,36.10
2017-09-19T03:31:46.947Z,33.17
2017-09-19T03:34:14.098Z,32.40
2017-09-19T03:36:40.462Z,36.30
2017-09-19T03:39:06.956Z,28.83
2017-09-19T03:41:33.397Z,24.30
2017-09-19T03:43:59.940Z,31.50
2017-09-19T03:46:26.375Z,27.17
2017-09-19T03:48:52.810Z,24.00
2017-09-19T03:51:20.064Z,22.00
2017-09-19T03:53:46.550Z,21.50
2017-09-19T03:56:13.042Z,22.23
2017-09-19T03:58:39.471Z,34.57
2017-09-19T04:01:05.906Z,27.93
2017-09-19T04:03:32.444Z,24.50
2017-09-19T04:05:58.879Z,35.00
2017-09-19T04:08:26.030Z,24.50
2017-09-19T04:10:52.434Z,22.20
2017-09-19T04:13:19.003Z,24.50
2017-09-19T04:15:45.438Z,26.10
2017-09-19T04:18:11.873Z,26.60
2017-09-19T04:20:38.308Z,27.50
2017-09-19T04:23:04.845Z,26.90
2017-09-19T04:25:31.998Z,30.93
2017-09-19T04:27:58.431Z,28.07
2017-09-19T04:30:24.867Z,27.83
2017-09-19T04:32:51.506Z,34.00
2017-09-19T04:35:18.035Z,30.73
2017-09-19T04:37:44.513Z,32.10
2017-09-19T04:40:10.995Z,47.13
2017-09-19T04:42:38.168Z,41.70
2017-09-19T04:45:04.557Z,43.53
2017-09-19T04:47:31.040Z,46.17
2017-09-19T04:49:57.472Z,41.67
2017-09-19T04:52:23.907Z,48.07
2017-09-19T04:54:50.342Z,39.30
2017-09-19T04:57:16.777Z,49.43
2017-09-19T04:59:43.911Z,51.03
2017-09-19T05:02:10.389Z,41.33
2017-09-19T05:04:36.900Z,38.60
2017-09-19T05:07:03.338Z,39.73
2017-09-19T05:09:29.731Z,33.97
2017-09-19T05:11:56.200Z,33.60
2017-09-19T05:14:22.746Z,42.10
2017-09-19T05:16:49.690Z,34.77
2017-09-19T05:19:16.112Z,37.33
2017-09-19T05:21:42.560Z,31.00
2017-09-19T05:24:09.302Z,53.43
2017-09-19T05:26:35.794Z,34.97
2017-09-19T05:29:02.276Z,39.60
2017-09-19T05:31:28.709Z,37.57
2017-09-19T05:33:55.433Z,35.67
2017-09-19T05:36:21.875Z,38.40
2017-09-19T05:38:48.327Z,51.87
2017-09-19T05:41:14.860Z,65.03
2017-09-19T05:43:41.396Z,49.50
2017-09-19T05:46:08.035Z,48.13
2017-09-19T05:48:34.470Z,34.83
2017-09-19T05:51:00.905Z,35.63
2017-09-19T05:53:27.652Z,34.23
2017-09-19T05:55:54.081Z,34.57
2017-09-19T05:58:20.488Z,37.23
2017-09-19T06:00:48.181Z,32.43
2017-09-19T06:03:14.718Z,35.00
2017-09-19T06:05:41.255Z,34.27
2017-09-19T06:08:07.691Z,30.50
2017-09-19T06:10:34.125Z,33.63
2017-09-19T06:13:00.968Z,32.00
2017-09-19T06:15:27.404Z,57.80
2017-09-19T06:17:53.839Z,48.70
2017-09-19T06:20:20.230Z,43.67
2017-09-19T06:22:46.711Z,33.07
2017-09-19T06:25:13.246Z,39.53
2017-09-19T06:27:39.681Z,35.60
2017-09-19T06:30:06.116Z,55.93
2017-09-19T06:32:32.552Z,53.63
2017-09-19T06:34:58.987Z,48.20
2017-09-19T06:37:25.523Z,56.80
2017-09-19T06:39:51.958Z,49.93
2017-09-19T06:42:18.598Z,100.60
2017-09-19T06:44:45.340Z,45.43
2017-09-19T06:47:11.736Z,48.43
2017-09-19T06:49:38.211Z,59.27
2017-09-19T06:52:04.800Z,45.63
2017-09-19T06:54:31.285Z,37.70
2017-09-19T06:56:57.723Z,32.13
2017-09-19T06:59:24.565Z,42.50
2017-09-19T07:01:50.999Z,51.30
2017-09-19T07:04:17.539Z,48.43
2017-09-19T07:06:44.179Z,46.23
2017-09-19T07:09:10.611Z,40.93
2017-09-19T07:11:37.045Z,48.90
2017-09-19T07:14:03.618Z,38.50
2017-09-19T07:16:30.327Z,44.27
2017-09-19T07:18:56.761Z,37.70
2017-09-19T07:21:23.195Z,32.00
2017-09-19T07:23:50.072Z,49.20
2017-09-19T07:26:16.580Z,39.23
2017-09-19T07:28:43.116Z,35.27
2017-09-19T07:31:09.551Z,37.27
2017-09-19T07:33:36.082Z,37.87
2017-09-19T07:36:02.472Z,40.17
2017-09-19T07:38:29.040Z,34.37
2017-09-19T07:40:55.440Z,40.33
2017-09-19T07:43:21.927Z,29.53
2017-09-19T07:45:48.364Z,30.60
2017-09-19T07:48:14.755Z,26.40
2017-09-19T07:50:41.233Z,26.90
2017-09-19T07:53:08.081Z,28.07
2017-09-19T07:55:34.821Z,38.03
2017-09-19T07:58:01.715Z,28.17
2017-09-19T08:00:28.611Z,25.83
2017-09-19T08:02:55.147Z,21.03
2017-09-19T08:05:21.904Z,17.00
2017-09-19T08:07:48.531Z,16.80
2017-09-19T08:10:15.119Z,26.67
2017-09-19T08:12:41.619Z,20.13
2017-09-19T08:15:08.449Z,20.87
2017-09-19T08:17:35.177Z,20.23
2017-09-19T08:20:01.737Z,26.53
2017-09-19T08:22:28.471Z,23.53
2017-09-19T08:24:55.216Z,24.83
2017-09-19T08:27:21.861Z,19.83
2017-09-19T08:29:48.697Z,22.53
2017-09-19T08:32:15.239Z,29.07
2017-09-19T08:34:42.796Z,21.97
2017-09-19T08:37:09.272Z,19.77
2017-09-19T08:39:36.090Z,19.00
2017-09-19T08:42:02.613Z,22.13
2017-09-19T08:44:29.150Z,26.33
2017-09-19T08:46:55.586Z,18.03
2017-09-19T08:49:22.019Z,26.83
2017-09-19T08:51:48.456Z,25.00
2017-09-19T08:54:15.197Z,17.37
2017-09-19T08:56:41.642Z,22.93
2017-09-19T08:59:08.027Z,28.57
2017-09-19T09:01:34.401Z,21.53
2017-09-19T09:04:00.937Z,26.13
2017-09-19T09:06:27.371Z,20.80
2017-09-19T09:08:53.806Z,16.87
2017-09-19T09:11:20.241Z,23.00
2017-09-19T09:13:46.734Z,27.83
2017-09-19T09:16:13.316Z,24.97
2017-09-19T09:18:39.700Z,15.80
2017-09-19T09:21:06.287Z,22.50
2017-09-19T09:23:32.932Z,24.23
2017-09-19T09:25:59.572Z,21.70
2017-09-19T09:28:26.098Z,20.83
2017-09-19T09:30:53.256Z,21.80
2017-09-19T09:33:19.748Z,24.20
2017-09-19T09:35:46.231Z,18.97
2017-09-19T09:38:12.664Z,20.47
2017-09-19T09:40:39.188Z,28.30
2017-09-19T09:43:05.691Z,24.00
2017-09-19T09:45:32.173Z,25.67
2017-09-19T09:47:58.607Z,23.50
2017-09-19T09:50:25.043Z,20.33
2017-09-19T09:52:51.535Z,20.10
2017-09-19T09:55:18.388Z,26.20
2017-09-19T09:57:45.066Z,19.63
2017-09-19T10:00:11.882Z,19.03
2017-09-19T10:02:38.960Z,29.07
2017-09-19T10:05:05.907Z,15.10
2017-09-19T10:07:32.750Z,18.33
2017-09-19T10:09:59.258Z,17.20
2017-09-19T10:12:25.675Z,26.07
2017-09-19T10:14:52.517Z,22.33
2017-09-19T10:17:19.001Z,25.40
2017-09-19T10:19:45.652Z,20.30
2017-09-19T10:22:12.281Z,22.50
2017-09-19T10:24:38.716Z,24.20
2017-09-19T10:27:05.151Z,18.50
2017-09-19T10:29:31.547Z,14.70
2017-09-19T10:31:58.017Z,22.23
2017-09-19T10:34:24.762Z,23.00
2017-09-19T10:36:51.148Z,23.57
2017-09-19T10:39:17.621Z,23.57
2017-09-19T10:41:44.066Z,30.50
2017-09-19T10:44:10.604Z,17.67
2017-09-19T10:46:37.039Z,74.30
2017-09-19T10:49:03.475Z,23.80
2017-09-19T10:51:30.113Z,16.70
2017-09-19T10:53:56.653Z,20.57
2017-09-19T10:56:23.087Z,21.07
2017-09-19T10:58:49.520Z,18.30
2017-09-19T11:01:15.957Z,24.53
2017-09-19T11:03:42.390Z,110.63
2017-09-19T11:06:08.830Z,61.37
2017-09-19T11:11:06.815Z,25.27
2017-09-19T11:13:34.075Z,17.80
2017-09-19T11:16:00.504Z,23.13
2017-09-19T11:18:26.939Z,20.60
2017-09-19T11:20:53.377Z,21.40
2017-09-19T11:23:19.918Z,21.00
2017-09-19T11:25:46.512Z,25.47
2017-09-19T11:28:13.089Z,26.77
2017-09-19T11:30:40.143Z,22.93
2017-09-19T11:33:06.582Z,16.77
2017-09-19T11:35:33.317Z,23.97
2017-09-19T11:37:59.958Z,17.57
2017-09-19T11:40:26.801Z,22.27
2017-09-19T11:42:53.702Z,17.23
2017-09-19T11:45:20.161Z,20.30
2017-09-19T11:47:46.821Z,16.93
2017-09-19T11:50:13.365Z,20.03
2017-09-19T11:52:40.264Z,25.87
2017-09-19T11:55:07.035Z,19.30
2017-09-19T11:57:33.477Z,22.07
2017-09-19T11:59:59.999Z,16.17
2017-09-19T12:02:27.274Z,12.97
2017-09-19T12:04:53.628Z,17.83
2017-09-19T12:07:20.245Z,11.90
2017-09-19T12:09:46.722Z,12.17
2017-09-19T12:12:13.629Z,22.03
2017-09-19T12:14:40.267Z,12.53
2017-09-19T12:17:06.917Z,13.40
2017-09-19T12:19:33.341Z,14.77
2017-09-19T12:21:59.879Z,18.40
2017-09-19T12:24:26.733Z,12.47
2017-09-19T12:26:53.158Z,13.30
2017-09-19T12:29:20.269Z,12.30
2017-09-19T12:31:46.901Z,10.70
2017-09-19T12:34:13.692Z,11.73
2017-09-19T12:36:40.322Z,16.87
2017-09-19T12:39:06.765Z,15.80
2017-09-19T12:41:33.202Z,11.77
2017-09-19T12:43:59.695Z,13.07
2017-09-19T12:46:26.169Z,11.90
2017-09-19T12:48:52.713Z,14.60
2017-09-19T12:51:19.251Z,13.73
2017-09-19T12:53:45.890Z,11.67
2017-09-19T12:56:12.425Z,12.47
2017-09-19T12:58:38.862Z,15.57
2017-09-19T13:01:05.297Z,11.30
2017-09-19T13:03:31.882Z,17.57
2017-09-19T13:05:58.693Z,15.00
2017-09-19T13:08:25.318Z,18.23
2017-09-19T13:10:51.975Z,15.83
2017-09-19T13:13:19.077Z,19.13
2017-09-19T13:15:45.804Z,16.20
2017-09-19T13:18:12.797Z,13.33
2017-09-19T13:20:39.751Z,16.00
2017-09-19T13:23:06.896Z,17.63
2017-09-19T13:25:33.332Z,11.03
2017-09-19T13:28:00.484Z,13.37
2017-09-19T13:30:27.020Z,19.13
2017-09-19T13:32:53.557Z,13.80
2017-09-19T13:35:20.151Z,20.63
2017-09-19T13:37:46.588Z,22.10
2017-09-19T13:40:13.066Z,17.33
2017-09-19T13:42:39.606Z,14.83
2017-09-19T13:45:06.603Z,23.70
2017-09-19T13:47:33.078Z,15.13
2017-09-19T13:49:59.799Z,19.33
2017-09-19T13:52:26.221Z,18.57
2017-09-19T13:54:52.782Z,31.27
2017-09-19T13:57:19.226Z,26.47
2017-09-19T13:59:45.621Z,20.83
2017-09-19T14:02:12.621Z,18.53
2017-09-19T14:04:39.157Z,18.10
2017-09-19T14:07:05.591Z,36.30
2017-09-19T14:09:32.744Z,18.20
2017-09-19T14:11:59.161Z,20.43
2017-09-19T14:14:25.708Z,21.43
2017-09-19T14:16:52.159Z,21.23
2017-09-19T14:19:19.404Z,21.63
2017-09-19T14:21:46.200Z,19.03
2017-09-19T14:24:12.683Z,15.10
2017-09-19T14:26:39.120Z,16.40
2017-09-19T14:29:05.862Z,16.67
2017-09-19T14:31:32.294Z,23.83
2017-09-19T14:33:58.825Z,13.90
2017-09-19T14:36:25.582Z,16.30
2017-09-19T14:38:52.419Z,17.77
2017-09-19T14:41:19.471Z,19.73
2017-09-19T14:43:46.108Z,25.97
2017-09-19T14:46:12.685Z,16.10
2017-09-19T14:48:39.636Z,23.47
2017-09-19T14:51:06.027Z,16.80
2017-09-19T14:53:32.565Z,18.80
2017-09-19T14:55:58.999Z,26.53
2017-09-19T14:58:25.434Z,18.17
2017-09-19T15:00:51.870Z,26.50
2017-09-19T15:03:18.512Z,22.87
2017-09-19T15:05:45.046Z,31.17
2017-09-19T15:08:11.482Z,22.53
2017-09-19T15:10:37.898Z,25.67
2017-09-19T15:13:04.453Z,23.53
2017-09-19T15:15:30.893Z,26.77
2017-09-19T15:17:57.323Z,24.10
2017-09-19T15:20:23.758Z,31.80
2017-09-19T15:22:50.296Z,29.77
2017-09-19T15:25:16.834Z,26.63
2017-09-19T15:27:43.271Z,27.73
2017-09-19T15:30:09.654Z,30.93
2017-09-19T15:32:36.139Z,26.23
2017-09-19T15:35:02.556Z,27.50
2017-09-19T15:37:28.999Z,28.80
2017-09-19T15:39:55.442Z,25.37
2017-09-19T15:42:21.866Z,29.83
2017-09-19T15:44:48.331Z,25.83
2017-09-19T15:47:14.749Z,34.70
2017-09-19T15:49:41.184Z,29.83
2017-09-19T15:52:07.620Z,29.67
2017-09-19T15:54:34.154Z,29.90
2017-09-19T15:57:00.589Z,32.93
2017-09-19T15:59:27.042Z,25.73
2017-09-19T16:01:53.616Z,33.50
2017-09-19T16:04:20.099Z,41.67
2017-09-19T16:06:46.533Z,30.40
2017-09-19T16:09:12.969Z,31.00
2017-09-19T16:11:39.403Z,33.13
2017-09-19T16:14:05.941Z,34.20
2017-09-19T16:16:32.376Z,40.93
2017-09-19T16:18:58.810Z,29.13
2017-09-19T16:21:25.963Z,40.20
2017-09-19T16:23:52.502Z,24.80
2017-09-19T16:26:18.935Z,29.37
2017-09-19T16:28:45.370Z,27.03
2017-09-19T16:31:11.805Z,30.87
2017-09-19T16:33:38.241Z,28.47
2017-09-19T16:36:04.674Z,28.87
2017-09-19T16:38:31.930Z,40.93
2017-09-19T16:40:58.296Z,29.17
2017-09-19T16:43:24.790Z,30.33
2017-09-19T16:45:51.235Z,32.40
2017-09-19T16:48:17.619Z,32.43
2017-09-19T16:50:44.001Z,34.57
2017-09-19T16:53:10.538Z,35.13
2017-09-19T16:55:37.645Z,38.37
2017-09-19T16:58:04.123Z,34.63
2017-09-19T17:00:30.560Z,32.87
2017-09-19T17:02:57.098Z,32.00
2017-09-19T17:05:23.533Z,31.33
2017-09-19T17:07:49.966Z,28.53
2017-09-19T17:10:16.402Z,43.07
2017-09-19T17:12:43.607Z,31.00
2017-09-19T17:15:10.091Z,32.23
2017-09-19T17:17:36.526Z,36.20
2017-09-19T17:20:02.959Z,47.20
2017-09-19T17:22:29.394Z,39.50
2017-09-19T17:24:55.830Z,46.50
2017-09-19T17:27:22.264Z,33.03
2017-09-19T17:29:49.406Z,35.37
2017-09-19T17:32:15.851Z,31.00
2017-09-19T17:34:42.287Z,31.83
2017-09-19T17:37:08.721Z,39.60
2017-09-19T17:39:35.157Z,28.63
2017-09-19T17:42:01.591Z,37.87
2017-09-19T17:44:28.129Z,31.20
2017-09-19T17:46:55.280Z,29.63
2017-09-19T17:49:21.716Z,30.13
2017-09-19T17:51:48.256Z,29.73
2017-09-19T17:54:14.790Z,36.43
2017-09-19T17:56:41.224Z,34.70
2017-09-19T17:59:07.611Z,32.43
2017-09-19T18:01:33.993Z,29.83
2017-09-19T18:04:01.349Z,29.73
2017-09-19T18:06:27.778Z,38.30
2017-09-19T18:08:54.219Z,32.80
2017-09-19T18:11:20.703Z,35.90
2017-09-19T18:13:47.191Z,36.00
2017-09-19T18:16:13.575Z,38.47
2017-09-19T18:18:39.958Z,34.87
2017-09-19T18:21:07.212Z,33.80
2017-09-19T18:23:33.754Z,36.97
2017-09-19T18:26:00.185Z,36.03
2017-09-19T18:28:26.721Z,32.90
2017-09-19T18:30:53.158Z,32.40
2017-09-19T18:33:19.647Z,30.83
2017-09-19T18:35:46.089Z,36.30
2017-09-19T18:38:13.280Z,35.63
2017-09-19T18:40:39.717Z,33.70
2017-09-19T18:43:06.150Z,34.60
2017-09-19T18:45:32.585Z,39.13
2017-09-19T18:47:59.020Z,35.27
2017-09-19T18:50:25.454Z,42.40
2017-09-19T18:52:51.992Z,39.20
2017-09-19T18:55:19.044Z,31.13
2017-09-19T18:57:45.476Z,37.50
2017-09-19T19:00:11.913Z,42.00
2017-09-19T19:02:38.448Z,55.37
2017-09-19T19:05:04.986Z,39.73
2017-09-19T19:07:31.421Z,46.63
2017-09-19T19:09:57.857Z,43.03
2017-09-19T19:12:25.008Z,42.77
2017-09-19T19:14:51.443Z,50.33
2017-09-19T19:17:17.878Z,44.97
2017-09-19T19:19:44.312Z,45.20
2017-09-19T19:22:10.747Z,53.20
2017-09-19T19:24:37.140Z,46.83
2017-09-19T19:27:03.567Z,53.37
2017-09-19T19:29:30.768Z,41.80
2017-09-19T19:31:57.204Z,43.90
2017-09-19T19:34:23.741Z,49.80
2017-09-19T19:36:50.176Z,68.17
2017-09-19T19:39:16.610Z,62.83
2017-09-19T19:41:43.046Z,46.67
2017-09-19T19:44:09.572Z,41.17
2017-09-19T19:46:36.682Z,42.10
2017-09-19T19:49:03.173Z,51.07
2017-09-19T19:51:29.556Z,44.13
2017-09-19T19:53:55.990Z,46.93
2017-09-19T19:56:22.476Z,46.57
2017-09-19T19:58:49.039Z,45.37
2017-09-19T20:01:15.446Z,39.43
2017-09-19T20:03:42.600Z,50.47
2017-09-19T20:06:09.035Z,41.73
2017-09-19T20:08:35.469Z,45.13
2017-09-19T20:11:02.007Z,39.70
2017-09-19T20:13:28.543Z,50.00
2017-09-19T20:15:54.980Z,38.43
2017-09-19T20:18:21.519Z,41.47
2017-09-19T20:20:48.873Z,44.73
2017-09-19T20:23:15.418Z,45.03
2017-09-19T20:25:41.946Z,44.90
2017-09-19T20:28:08.381Z,39.23
2017-09-19T20:30:34.911Z,49.30
2017-09-19T20:33:01.455Z,42.20
2017-09-19T20:35:27.890Z,43.47
2017-09-19T20:37:55.041Z,46.83
2017-09-19T20:40:21.477Z,46.80
2017-09-19T20:42:48.014Z,45.07
2017-09-19T20:45:14.444Z,44.43
2017-09-19T20:47:40.986Z,43.57
2017-09-19T20:50:07.422Z,43.97
2017-09-19T20:52:33.958Z,48.83
2017-09-19T20:55:01.110Z,61.43
2017-09-19T20:57:27.547Z,42.97
2017-09-19T20:59:53.980Z,50.93
2017-09-19T21:02:20.415Z,39.80
2017-09-19T21:04:46.904Z,46.80
2017-09-19T21:07:13.387Z,53.20
2017-09-19T21:09:39.822Z,56.73
2017-09-19T21:12:07.077Z,47.77
2017-09-19T21:14:33.569Z,40.97
2017-09-19T21:17:00.049Z,46.60
2017-09-19T21:19:26.437Z,47.07
2017-09-19T21:21:52.918Z,45.47
2017-09-19T21:24:19.456Z,45.47
2017-09-19T21:26:45.891Z,47.93
2017-09-19T21:29:12.266Z,43.50
2017-09-19T21:31:38.759Z,41.13
2017-09-19T21:34:05.297Z,47.63
2017-09-19T21:36:31.733Z,47.07
2017-09-19T21:38:58.167Z,51.57
2017-09-19T21:41:24.705Z,51.63
2017-09-19T21:43:51.223Z,56.23
2017-09-19T21:46:18.394Z,43.87
2017-09-19T21:48:44.829Z,40.23
2017-09-19T21:51:11.227Z,43.73
2017-09-19T21:53:37.598Z,45.17
2017-09-19T21:56:04.032Z,46.53
2017-09-19T21:58:30.467Z,39.20
2017-09-19T22:00:56.901Z,38.43
2017-09-19T22:03:24.053Z,34.17
2017-09-19T22:05:50.519Z,39.60
2017-09-19T22:08:16.875Z,44.40
2017-09-19T22:10:43.345Z,47.07
2017-09-19T22:13:09.892Z,40.60
2017-09-19T22:15:36.330Z,44.70
2017-09-19T22:18:02.764Z,38.93
2017-09-19T22:20:29.916Z,51.07
2017-09-19T22:22:56.454Z,37.07
2017-09-19T22:25:22.877Z,41.30
2017-09-19T22:27:49.321Z,39.13
2017-09-19T22:30:15.759Z,46.80
2017-09-19T22:32:42.296Z,45.43
2017-09-19T22:35:08.728Z,43.37
2017-09-19T22:37:35.882Z,43.47
2017-09-19T22:40:02.235Z,40.23
2017-09-19T22:42:28.626Z,44.00
2017-09-19T22:44:55.084Z,44.50
2017-09-19T22:47:21.514Z,49.53
2017-09-19T22:49:47.955Z,51.27
2017-09-19T22:52:14.390Z,46.87
2017-09-19T22:54:40.830Z,39.67
2017-09-19T22:57:07.259Z,43.93
2017-09-19T22:59:33.694Z,49.00
2017-09-19T23:02:00.129Z,48.90
2017-09-19T23:04:26.666Z,43.67
2017-09-19T23:06:53.103Z,42.40
2017-09-19T23:09:19.537Z,38.80
2017-09-19T23:11:46.640Z,45.03
2017-09-19T23:14:13.123Z,42.20
2017-09-19T23:16:39.500Z,44.60
2017-09-19T23:19:05.970Z,36.73
2017-09-19T23:21:32.427Z,51.03
2017-09-19T23:23:58.959Z,38.03
2017-09-19T23:26:25.397Z,36.30
2017-09-19T23:28:52.551Z,40.60
2017-09-19T23:31:18.986Z,39.40
2017-09-19T23:33:45.524Z,46.60
2017-09-19T23:36:11.945Z,44.77
2017-09-19T23:38:38.495Z,39.23
2017-09-19T23:41:04.931Z,35.60
2017-09-19T23:43:31.469Z,36.97
2017-09-19T23:45:58.617Z,37.20
2017-09-19T23:48:25.055Z,43.70
2017-09-19T23:50:51.490Z,56.93
2017-09-19T23:53:18.027Z,40.77
2017-09-19T23:55:44.465Z,37.50
2017-09-19T23:58:10.896Z,38.97
